createdAt,value
2019-05-05T00:02:24.815Z,1.80
2019-05-05T00:04:56.777Z,1.62
2019-05-05T00:07:29.307Z,1.65
2019-05-05T00:09:59.668Z,2.10
2019-05-05T00:12:31.749Z,1.77
2019-05-05T00:15:19.936Z,1.75
2019-05-05T00:17:50.728Z,2.00
2019-05-05T00:20:21.059Z,1.82
2019-05-05T00:22:51.823Z,2.50
2019-05-05T00:25:22.433Z,1.85
2019-05-05T00:27:54.596Z,2.35
2019-05-05T00:30:25.358Z,2.10
2019-05-05T00:32:56.146Z,2.30
2019-05-05T00:35:26.802Z,2.08
2019-05-05T00:37:57.684Z,2.22
2019-05-05T00:40:28.332Z,2.50
2019-05-05T00:42:58.865Z,2.35
2019-05-05T00:45:30.254Z,1.85
2019-05-05T00:48:08.510Z,2.05
2019-05-05T00:50:38.852Z,2.27
2019-05-05T00:53:09.227Z,1.98
2019-05-05T00:55:39.903Z,3.20
2019-05-05T00:58:10.743Z,1.60
2019-05-05T01:00:44.383Z,2.30
2019-05-05T01:03:15.383Z,1.87
2019-05-05T01:05:55.268Z,2.25
2019-05-05T01:08:29.513Z,2.20
2019-05-05T01:10:59.831Z,2.30
2019-05-05T01:13:30.200Z,1.85
2019-05-05T01:16:00.936Z,2.25
2019-05-05T01:18:31.643Z,2.00
2019-05-05T01:21:04.394Z,2.08
2019-05-05T01:23:35.093Z,2.40
2019-05-05T01:26:06.073Z,2.20
2019-05-05T01:28:36.866Z,2.37
2019-05-05T01:31:09.901Z,1.70
2019-05-05T01:33:58.373Z,2.22
2019-05-05T01:36:28.733Z,1.98
2019-05-05T01:39:01.009Z,2.10
2019-05-05T01:41:34.791Z,1.60
2019-05-05T01:44:05.352Z,1.92
2019-05-05T01:46:35.731Z,1.90
2019-05-05T01:49:06.454Z,2.17
2019-05-05T01:51:37.186Z,1.90
2019-05-05T01:54:08.027Z,1.90
2019-05-05T01:56:38.803Z,2.15
2019-05-05T01:59:09.162Z,1.90
2019-05-05T02:01:52.243Z,2.00
2019-05-05T02:04:24.780Z,2.10
2019-05-05T02:06:55.227Z,1.95
2019-05-05T02:09:26.167Z,2.20
2019-05-05T02:11:57.184Z,1.62
2019-05-05T02:14:27.536Z,1.60
2019-05-05T02:16:58.597Z,2.27
2019-05-05T02:19:29.076Z,2.30
2019-05-05T02:21:59.738Z,2.83
2019-05-05T02:24:30.153Z,2.30
2019-05-05T02:27:00.515Z,3.05
2019-05-05T02:29:35.654Z,2.55
2019-05-05T02:32:25.646Z,2.80
2019-05-05T02:34:56.795Z,3.10
2019-05-05T02:37:27.998Z,2.87
2019-05-05T02:40:03.334Z,3.25
2019-05-05T02:42:30.805Z,3.30
2019-05-05T02:45:27.833Z,3.05
2019-05-05T02:48:00.331Z,3.80
2019-05-05T02:50:48.346Z,3.67
2019-05-05T02:53:04.529Z,4.62
2019-05-05T02:55:34.922Z,4.35
2019-05-05T02:58:05.248Z,4.10
2019-05-05T03:00:37.728Z,3.70
2019-05-05T03:03:08.650Z,4.20
2019-05-05T03:05:39.044Z,4.33
2019-05-05T03:08:09.575Z,4.03
2019-05-05T03:10:40.279Z,4.60
2019-05-05T03:13:13.911Z,4.72
2019-05-05T03:16:19.861Z,3.35
2019-05-05T03:18:50.636Z,4.20
2019-05-05T03:21:21.674Z,4.92
2019-05-05T03:23:54.543Z,4.75
2019-05-05T03:26:25.054Z,5.37
2019-05-05T03:29:16.755Z,4.00
2019-05-05T03:31:47.972Z,3.95
2019-05-05T03:34:19.963Z,3.67
2019-05-05T03:36:53.476Z,3.45
2019-05-05T03:39:27.812Z,4.20
2019-05-05T03:41:59.890Z,4.03
2019-05-05T03:44:33.534Z,4.55
2019-05-05T03:47:04.174Z,4.60
2019-05-05T03:49:34.885Z,4.50
2019-05-05T03:52:05.434Z,5.05
2019-05-05T03:54:36.059Z,4.47
2019-05-05T03:57:09.238Z,3.77
2019-05-05T03:59:44.073Z,3.50
2019-05-05T04:02:34.169Z,4.10
2019-05-05T04:05:14.538Z,3.20
2019-05-05T04:07:44.644Z,3.42
2019-05-05T04:10:14.966Z,3.00
2019-05-05T04:12:46.239Z,3.47
2019-05-05T04:15:16.969Z,3.10
2019-05-05T04:17:58.374Z,3.70
2019-05-05T04:20:30.120Z,3.58
2019-05-05T04:23:00.819Z,3.60
2019-05-05T04:25:31.436Z,2.90
2019-05-05T04:28:04.260Z,3.08
2019-05-05T04:30:34.273Z,3.37
2019-05-05T04:33:04.968Z,3.50
2019-05-05T04:35:36.180Z,2.70
2019-05-05T04:38:07.123Z,4.00
2019-05-05T04:40:37.486Z,3.15
2019-05-05T04:43:08.373Z,3.45
2019-05-05T04:45:38.753Z,3.33
2019-05-05T04:48:11.237Z,3.25
2019-05-05T04:50:55.786Z,3.58
2019-05-05T04:53:34.781Z,3.30
2019-05-05T04:56:05.509Z,3.60
2019-05-05T04:58:36.561Z,3.75
2019-05-05T05:01:07.483Z,4.25
2019-05-05T05:03:46.052Z,4.10
2019-05-05T05:06:37.745Z,3.52
2019-05-05T05:09:08.250Z,3.45
2019-05-05T05:11:38.647Z,3.65
2019-05-05T05:14:09.338Z,3.87
2019-05-05T05:16:40.388Z,4.17
2019-05-05T05:19:11.100Z,3.87
2019-05-05T05:21:43.617Z,4.00
2019-05-05T05:24:14.776Z,4.00
2019-05-05T05:26:45.618Z,4.25
2019-05-05T05:29:16.972Z,3.83
2019-05-05T05:31:47.802Z,3.37
2019-05-05T05:34:18.375Z,3.30
2019-05-05T05:36:48.769Z,3.77
2019-05-05T05:39:30.581Z,3.75
2019-05-05T05:42:01.376Z,3.45
2019-05-05T05:44:45.500Z,3.52
2019-05-05T05:47:20.253Z,4.20
2019-05-05T05:49:54.427Z,4.67
2019-05-05T05:52:25.164Z,4.12
2019-05-05T05:54:55.869Z,3.70
2019-05-05T05:57:26.747Z,3.65
2019-05-05T05:59:57.103Z,3.70
2019-05-05T06:02:27.433Z,3.52
2019-05-05T06:04:58.234Z,3.30
2019-05-05T06:07:28.635Z,2.80
2019-05-05T06:09:59.010Z,3.65
2019-05-05T06:12:29.703Z,3.58
2019-05-05T06:15:00.331Z,4.25
2019-05-05T06:17:31.084Z,3.92
2019-05-05T06:20:03.905Z,4.42
2019-05-05T06:22:34.461Z,3.87
2019-05-05T06:25:07.082Z,3.60
2019-05-05T06:27:37.394Z,3.90
2019-05-05T06:30:08.144Z,3.45
2019-05-05T06:32:38.578Z,3.20
2019-05-05T06:35:13.719Z,3.65
2019-05-05T06:37:55.634Z,3.47
2019-05-05T06:40:28.023Z,3.58
2019-05-05T06:43:13.879Z,3.95
2019-05-05T06:45:53.566Z,3.83
2019-05-05T06:48:23.972Z,3.75
2019-05-05T06:50:54.557Z,4.42
2019-05-05T06:53:25.012Z,4.17
2019-05-05T06:55:55.681Z,3.92
2019-05-05T06:58:26.065Z,3.42
2019-05-05T07:00:56.467Z,3.47
2019-05-05T07:03:27.476Z,4.20
2019-05-05T07:05:58.363Z,3.10
2019-05-05T07:08:29.080Z,3.12
2019-05-05T07:10:59.809Z,3.52
2019-05-05T07:13:30.181Z,3.05
2019-05-05T07:16:00.797Z,3.05
2019-05-05T07:18:31.530Z,2.75
2019-05-05T07:21:03.677Z,2.40
2019-05-05T07:23:34.652Z,3.10
2019-05-05T07:26:25.131Z,2.77
2019-05-05T07:28:55.942Z,2.40
2019-05-05T07:31:26.723Z,1.82
2019-05-05T07:33:57.110Z,2.12
2019-05-05T07:36:41.036Z,1.80
2019-05-05T07:39:14.226Z,1.62
2019-05-05T07:41:44.746Z,1.40
2019-05-05T07:44:25.748Z,1.60
2019-05-05T07:46:47.940Z,2.00
2019-05-05T07:49:18.464Z,1.65
2019-05-05T07:51:48.936Z,1.85
2019-05-05T07:54:19.359Z,1.80
2019-05-05T07:56:50.360Z,2.20
2019-05-05T07:59:20.973Z,1.92
2019-05-05T08:01:51.619Z,1.40
2019-05-05T08:04:24.119Z,1.40
2019-05-05T08:06:54.699Z,1.75
2019-05-05T08:09:25.411Z,1.60
2019-05-05T08:11:56.068Z,1.60
2019-05-05T08:14:26.671Z,2.57
2019-05-05T08:17:10.807Z,1.80
2019-05-05T08:19:43.901Z,1.60
2019-05-05T08:22:14.770Z,1.30
2019-05-05T08:25:04.125Z,1.70
2019-05-05T08:27:44.580Z,2.10
2019-05-05T08:30:19.256Z,2.30
2019-05-05T08:32:51.769Z,1.30
2019-05-05T08:35:23.897Z,1.60
2019-05-05T08:37:54.669Z,1.23
2019-05-05T08:40:25.581Z,1.63
2019-05-05T08:42:56.301Z,2.00
2019-05-05T08:45:26.875Z,1.60
2019-05-05T08:47:57.628Z,1.33
2019-05-05T08:50:27.999Z,1.40
2019-05-05T08:52:58.461Z,1.77
2019-05-05T08:55:29.196Z,1.83
2019-05-05T08:57:59.569Z,1.53
2019-05-05T09:00:30.255Z,1.30
2019-05-05T09:03:00.989Z,1.40
2019-05-05T09:05:31.383Z,1.47
2019-05-05T09:08:04.305Z,1.40
2019-05-05T09:10:34.568Z,2.00
2019-05-05T09:13:05.149Z,1.77
2019-05-05T09:15:37.658Z,1.80
2019-05-05T09:18:08.353Z,1.60
2019-05-05T09:20:39.144Z,1.77
2019-05-05T09:23:09.539Z,1.60
2019-05-05T09:25:44.984Z,1.20
2019-05-05T09:28:17.645Z,1.30
2019-05-05T09:30:50.042Z,1.60
2019-05-05T09:33:27.238Z,1.50
2019-05-05T09:35:58.019Z,1.70
2019-05-05T09:38:30.249Z,1.30
2019-05-05T09:41:00.705Z,0.90
2019-05-05T09:43:31.816Z,1.30
2019-05-05T09:46:03.929Z,2.20
2019-05-05T09:48:34.537Z,1.10
2019-05-05T09:51:05.266Z,1.40
2019-05-05T09:53:35.802Z,1.70
2019-05-05T09:56:06.145Z,2.00
2019-05-05T09:58:36.578Z,1.70
2019-05-05T10:01:07.860Z,2.20
2019-05-05T10:03:39.069Z,2.90
2019-05-05T10:06:09.695Z,1.63
2019-05-05T10:08:40.400Z,1.23
2019-05-05T10:11:11.550Z,1.60
2019-05-05T10:13:44.234Z,1.30
2019-05-05T10:16:14.812Z,1.10
2019-05-05T10:18:45.195Z,1.80
2019-05-05T10:21:17.721Z,1.47
2019-05-05T10:23:49.660Z,1.27
2019-05-05T10:26:20.224Z,1.47
2019-05-05T10:28:50.985Z,1.47
2019-05-05T10:31:21.338Z,2.10
2019-05-05T10:33:59.538Z,1.60
2019-05-05T10:36:30.016Z,1.63
2019-05-05T10:39:04.426Z,1.77
2019-05-05T10:41:35.123Z,2.00
2019-05-05T10:44:05.834Z,2.23
2019-05-05T10:46:36.672Z,1.67
2019-05-05T10:49:07.064Z,1.40
2019-05-05T10:51:38.336Z,1.53
2019-05-05T10:54:08.716Z,2.20
2019-05-05T10:56:39.063Z,1.60
2019-05-05T10:59:09.437Z,1.57
2019-05-05T11:01:40.279Z,1.30
2019-05-05T11:04:11.235Z,1.00
2019-05-05T11:06:43.694Z,1.27
2019-05-05T11:09:14.323Z,1.63
2019-05-05T11:11:45.043Z,1.50
2019-05-05T11:14:15.646Z,1.30
2019-05-05T11:16:46.803Z,1.20
2019-05-05T11:19:17.737Z,1.57
2019-05-05T11:21:48.953Z,2.07
2019-05-05T11:24:19.384Z,1.77
2019-05-05T11:26:50.131Z,1.70
2019-05-05T11:29:20.847Z,1.53
2019-05-05T11:31:51.257Z,1.60
2019-05-05T11:34:24.680Z,1.70
2019-05-05T11:37:08.920Z,1.50
2019-05-05T11:39:39.663Z,1.20
2019-05-05T11:42:10.015Z,1.27
2019-05-05T11:44:40.772Z,1.10
2019-05-05T11:47:13.982Z,1.03
2019-05-05T11:49:44.743Z,1.43
2019-05-05T11:52:15.361Z,1.43
2019-05-05T11:54:46.372Z,1.30
2019-05-05T11:57:19.019Z,1.20
2019-05-05T11:59:50.349Z,1.60
2019-05-05T12:02:20.782Z,1.03
2019-05-05T12:04:51.125Z,1.43
2019-05-05T12:07:23.712Z,1.07
2019-05-05T12:09:56.104Z,1.20
2019-05-05T12:12:26.981Z,1.40
2019-05-05T12:14:57.696Z,1.33
2019-05-05T12:17:34.759Z,2.10
2019-05-05T12:20:07.566Z,2.10
2019-05-05T12:22:38.478Z,1.50
2019-05-05T12:25:28.560Z,1.70
2019-05-05T12:28:01.295Z,1.50
2019-05-05T12:30:33.433Z,1.37
2019-05-05T12:33:04.836Z,1.50
2019-05-05T12:35:35.755Z,1.83
2019-05-05T12:38:06.524Z,1.57
2019-05-05T12:40:36.945Z,1.77
2019-05-05T12:43:07.318Z,1.30
2019-05-05T12:45:43.839Z,1.60
2019-05-05T12:48:18.662Z,1.90
2019-05-05T12:50:49.959Z,1.70
2019-05-05T12:53:21.153Z,1.80
2019-05-05T12:55:53.752Z,1.30
2019-05-05T12:58:24.524Z,1.40
2019-05-05T13:01:08.575Z,1.20
2019-05-05T13:03:39.324Z,1.53
2019-05-05T13:06:10.080Z,1.20
2019-05-05T13:08:40.777Z,1.30
2019-05-05T13:11:11.446Z,1.30
2019-05-05T13:13:43.971Z,1.43
2019-05-05T13:16:14.396Z,1.50
2019-05-05T13:18:44.793Z,1.60
2019-05-05T13:21:34.707Z,1.20
2019-05-05T13:24:24.765Z,1.90
2019-05-05T13:26:56.832Z,1.80
2019-05-05T13:29:27.173Z,1.40
2019-05-05T13:31:57.532Z,1.30
2019-05-05T13:34:28.579Z,1.40
2019-05-05T13:36:58.944Z,1.63
2019-05-05T13:39:29.289Z,1.87
2019-05-05T13:42:00.027Z,2.10
2019-05-05T13:44:49.353Z,1.13
2019-05-05T13:47:19.685Z,1.60
2019-05-05T13:49:54.191Z,1.17
2019-05-05T13:52:24.539Z,1.30
2019-05-05T13:54:54.919Z,1.60
2019-05-05T13:57:25.275Z,1.90
2019-05-05T13:59:55.693Z,1.70
2019-05-05T14:02:26.905Z,1.50
2019-05-05T14:04:57.293Z,1.77
2019-05-05T14:07:27.659Z,2.00
2019-05-05T14:09:59.056Z,1.80
2019-05-05T14:12:30.240Z,1.70
2019-05-05T14:15:00.747Z,1.30
2019-05-05T14:17:31.272Z,1.47
2019-05-05T14:20:06.721Z,1.27
2019-05-05T14:22:34.731Z,1.10
2019-05-05T14:25:20.410Z,2.03
2019-05-05T14:27:51.249Z,2.60
2019-05-05T14:30:23.850Z,2.53
2019-05-05T14:32:54.921Z,1.77
2019-05-05T14:35:27.195Z,1.40
2019-05-05T14:38:04.018Z,1.50
2019-05-05T14:40:34.755Z,2.50
2019-05-05T14:43:05.132Z,1.50
2019-05-05T14:45:36.168Z,2.40
2019-05-05T14:48:06.556Z,1.60
2019-05-05T14:50:36.892Z,1.13
2019-05-05T14:53:07.260Z,1.37
2019-05-05T14:55:37.623Z,1.30
2019-05-05T14:58:08.176Z,2.37
2019-05-05T15:00:39.513Z,1.30
2019-05-05T15:03:10.020Z,1.33
2019-05-05T15:05:45.226Z,1.30
2019-05-05T15:08:33.469Z,1.30
2019-05-05T15:11:21.057Z,1.60
2019-05-05T15:13:51.760Z,2.30
2019-05-05T15:16:24.443Z,2.27
2019-05-05T15:18:54.711Z,2.80
2019-05-05T15:21:25.427Z,1.90
2019-05-05T15:23:56.188Z,1.37
2019-05-05T15:26:27.313Z,1.43
2019-05-05T15:29:01.408Z,1.60
2019-05-05T15:31:29.896Z,1.40
2019-05-05T15:34:00.414Z,1.93
2019-05-05T15:36:31.153Z,2.10
2019-05-05T15:39:01.896Z,1.80
2019-05-05T15:41:34.124Z,1.60
2019-05-05T15:44:05.370Z,1.40
2019-05-05T15:46:35.784Z,1.90
2019-05-05T15:49:06.311Z,1.67
2019-05-05T15:51:37.608Z,2.17
2019-05-05T15:54:07.997Z,1.50
2019-05-05T15:57:05.652Z,1.50
2019-05-05T15:59:31.230Z,1.33
2019-05-05T16:02:01.607Z,1.27
2019-05-05T16:04:34.126Z,1.30
2019-05-05T16:07:04.795Z,1.57
2019-05-05T16:09:35.525Z,1.50
2019-05-05T16:12:05.872Z,1.30
2019-05-05T16:14:38.421Z,1.40
2019-05-05T16:17:10.444Z,1.90
2019-05-05T16:19:53.699Z,1.67
2019-05-05T16:22:26.297Z,1.83
2019-05-05T16:25:15.265Z,1.90
2019-05-05T16:27:46.237Z,2.00
2019-05-05T16:30:17.563Z,1.87
2019-05-05T16:32:48.374Z,1.37
2019-05-05T16:35:19.137Z,1.90
2019-05-05T16:37:49.878Z,2.00
2019-05-05T16:40:23.150Z,1.27
2019-05-05T16:42:54.253Z,1.63
2019-05-05T16:45:25.243Z,1.37
2019-05-05T16:47:56.049Z,1.50
2019-05-05T16:50:26.665Z,1.40
2019-05-05T16:53:04.798Z,1.27
2019-05-05T16:55:46.553Z,1.10
2019-05-05T16:58:17.038Z,1.83
2019-05-05T17:00:47.523Z,2.43
2019-05-05T17:03:17.932Z,1.93
2019-05-05T17:05:49.174Z,1.77
2019-05-05T17:08:19.817Z,4.57
2019-05-05T17:10:50.202Z,1.60
2019-05-05T17:13:25.361Z,1.57
2019-05-05T17:15:57.800Z,1.40
2019-05-05T17:18:36.285Z,1.67
2019-05-05T17:21:13.461Z,1.30
2019-05-05T17:23:44.418Z,1.10
2019-05-05T17:26:15.486Z,1.30
2019-05-05T17:28:45.790Z,1.30
2019-05-05T17:31:16.574Z,1.60
2019-05-05T17:33:47.106Z,1.30
2019-05-05T17:36:17.485Z,1.87
2019-05-05T17:38:47.872Z,1.57
2019-05-05T17:41:36.225Z,1.67
2019-05-05T17:44:08.232Z,1.37
2019-05-05T17:46:46.240Z,2.70
2019-05-05T17:49:18.567Z,1.70
2019-05-05T17:52:03.755Z,1.30
2019-05-05T17:54:36.142Z,1.67
2019-05-05T17:57:06.513Z,1.80
2019-05-05T17:59:37.242Z,1.30
2019-05-05T18:02:07.705Z,1.30
2019-05-05T18:04:38.715Z,0.97
2019-05-05T18:07:14.290Z,14.50
2019-05-05T18:10:01.545Z,3.30
2019-05-05T18:12:34.276Z,2.37
2019-05-05T18:15:09.558Z,1.53
2019-05-05T18:17:43.378Z,1.80
2019-05-05T18:20:13.965Z,1.50
2019-05-05T18:22:44.352Z,3.57
2019-05-05T18:25:15.463Z,2.97
2019-05-05T18:27:45.975Z,2.43
2019-05-05T18:30:17.429Z,1.90
2019-05-05T18:32:47.821Z,1.40
2019-05-05T18:35:18.797Z,1.20
2019-05-05T18:37:49.739Z,1.47
2019-05-05T18:40:20.176Z,1.20
2019-05-05T18:42:50.875Z,1.80
2019-05-05T18:45:23.669Z,1.30
2019-05-05T18:47:54.351Z,1.15
2019-05-05T18:50:24.984Z,1.63
2019-05-05T18:52:55.691Z,1.87
2019-05-05T18:55:26.088Z,1.50
2019-05-05T18:57:57.136Z,9.63
2019-05-05T19:00:45.564Z,2.93
2019-05-05T19:03:36.057Z,3.90
2019-05-05T19:06:08.724Z,2.60
2019-05-05T19:08:53.672Z,2.00
2019-05-05T19:11:15.829Z,2.67
2019-05-05T19:13:46.432Z,4.30
2019-05-05T19:16:16.902Z,6.00
2019-05-05T19:18:47.536Z,5.07
2019-05-05T19:21:22.333Z,5.70
2019-05-05T19:23:54.195Z,4.90
2019-05-05T19:26:25.039Z,5.37
2019-05-05T19:28:55.392Z,4.50
2019-05-05T19:31:25.752Z,4.07
2019-05-05T19:33:56.416Z,4.50
2019-05-05T19:36:27.521Z,4.50
2019-05-05T19:38:58.373Z,4.83
2019-05-05T19:41:28.737Z,4.10
2019-05-05T19:44:01.872Z,5.00
2019-05-05T19:46:40.083Z,4.37
2019-05-05T19:49:14.822Z,3.90
2019-05-05T19:51:46.366Z,4.77
2019-05-05T19:54:18.363Z,5.10
2019-05-05T19:56:48.778Z,5.63
2019-05-05T19:59:19.729Z,5.85
2019-05-05T20:01:50.084Z,4.63
2019-05-05T20:04:20.922Z,5.70
2019-05-05T20:06:51.277Z,5.35
2019-05-05T20:09:22.013Z,5.92
2019-05-05T20:11:54.505Z,5.47
2019-05-05T20:14:28.571Z,6.08
2019-05-05T20:17:14.601Z,5.90
2019-05-05T20:19:45.961Z,5.12
2019-05-05T20:22:16.537Z,4.08
2019-05-05T20:24:46.887Z,3.52
2019-05-05T20:27:17.241Z,3.90
2019-05-05T20:29:47.670Z,3.85
2019-05-05T20:32:20.136Z,3.55
2019-05-05T20:35:17.862Z,3.45
2019-05-05T20:38:06.250Z,2.95
2019-05-05T20:40:38.344Z,3.12
2019-05-05T20:43:09.086Z,2.80
2019-05-05T20:45:39.808Z,3.08
2019-05-05T20:48:11.791Z,3.87
2019-05-05T20:50:43.903Z,3.50
2019-05-05T20:53:14.689Z,3.70
2019-05-05T20:55:45.339Z,3.52
2019-05-05T20:58:15.931Z,3.67
2019-05-05T21:00:46.734Z,3.65
2019-05-05T21:03:17.344Z,3.15
2019-05-05T21:05:47.734Z,3.33
2019-05-05T21:08:18.399Z,3.37
2019-05-05T21:10:49.563Z,2.75
2019-05-05T21:13:21.290Z,2.77
2019-05-05T21:15:53.768Z,3.37
2019-05-05T21:18:24.038Z,3.60
2019-05-05T21:20:55.466Z,3.22
2019-05-05T21:23:34.313Z,2.50
2019-05-05T21:26:06.843Z,3.00
2019-05-05T21:28:37.177Z,2.92
2019-05-05T21:31:07.883Z,2.72
2019-05-05T21:33:38.249Z,2.75
2019-05-05T21:36:08.997Z,2.90
2019-05-05T21:38:39.365Z,4.10
2019-05-05T21:41:10.133Z,3.20
2019-05-05T21:43:40.511Z,3.60
2019-05-05T21:46:11.242Z,3.40
2019-05-05T21:48:41.741Z,3.60
2019-05-05T21:51:16.995Z,3.05
2019-05-05T21:53:49.423Z,3.35
2019-05-05T21:56:39.855Z,3.17
2019-05-05T21:59:10.913Z,3.17
2019-05-05T22:01:48.410Z,2.98
2019-05-05T22:04:15.111Z,3.47
2019-05-05T22:06:45.543Z,3.22
2019-05-05T22:09:15.900Z,2.90
2019-05-05T22:11:46.525Z,3.08
2019-05-05T22:14:16.885Z,3.35
2019-05-05T22:16:47.308Z,3.40
2019-05-05T22:19:19.376Z,2.42
2019-05-05T22:22:03.949Z,3.47
2019-05-05T22:24:35.750Z,3.72
2019-05-05T22:27:06.232Z,2.58
2019-05-05T22:29:36.735Z,2.70
2019-05-05T22:32:07.060Z,3.20
2019-05-05T22:34:38.762Z,2.22
2019-05-05T22:37:09.877Z,2.40
2019-05-05T22:39:40.610Z,2.20
2019-05-05T22:42:11.346Z,2.70
2019-05-05T22:44:41.979Z,2.25
2019-05-05T22:47:13.923Z,2.30
2019-05-05T22:49:44.707Z,2.50
2019-05-05T22:52:15.732Z,2.80
2019-05-05T22:54:46.432Z,2.60
2019-05-05T22:57:36.218Z,2.45
2019-05-05T23:00:25.774Z,2.62
2019-05-05T23:02:50.866Z,3.00
2019-05-05T23:05:39.172Z,2.50
2019-05-05T23:08:09.508Z,3.25
2019-05-05T23:10:40.152Z,2.67
2019-05-05T23:13:10.932Z,2.40
2019-05-05T23:15:44.013Z,2.75
2019-05-05T23:18:28.124Z,2.83
2019-05-05T23:21:00.208Z,2.50
2019-05-05T23:23:48.170Z,2.65
2019-05-05T23:26:20.306Z,2.55
2019-05-05T23:28:51.007Z,2.95
2019-05-05T23:31:21.401Z,2.65
2019-05-05T23:33:51.799Z,2.55
2019-05-05T23:36:24.175Z,2.27
2019-05-05T23:38:55.520Z,2.85
2019-05-05T23:41:25.871Z,2.35
2019-05-05T23:43:56.571Z,2.60
2019-05-05T23:46:26.984Z,2.50
2019-05-05T23:48:57.338Z,3.30
2019-05-05T23:51:27.719Z,2.75
2019-05-05T23:53:58.374Z,2.95
2019-05-05T23:56:29.219Z,2.60
2019-05-05T23:58:59.581Z,3.02
